Time;durP1;ratioP1;P1;durP2;ratioP2;P2;SDS_P1;SDS_P2;PMS_P1;PMS_P2;Temp;Humidity;BMP_temperature;BMP_pressure;BME280_temperature;BME280_humidity;BME280_pressure;Samples;Min_cycle;Max_cycle;Signal;HPM_P1;HPM_P2
2022/11/04 00:01:57;;;;;;;;;;;;;;;-143.57;84.50;50973.00;5059194;28;19934;-65
2022/11/04 00:04:26;;;;;;;;;;;;;;;-143.57;83.82;50945.19;5059689;28;21524;-64
2022/11/04 00:06:53;;;;;;;;;;;;;;;-143.57;84.60;50969.03;5061470;28;19928;-65
2022/11/04 00:09:21;;;;;;;;;;;;;;;-143.57;85.13;50980.97;5061361;28;19928;-65
2022/11/04 00:14:33;;;;;;;;;;;;;;;-143.57;86.47;50976.97;5058727;28;19963;-64
2022/11/04 00:17:18;;;;;;;;;;;;;;;-143.57;86.88;50941.19;5064381;28;19928;-63
2022/11/04 00:33:24;;;;;;;;;;;;;;;-143.57;89.84;50980.97;5057361;28;19933;-66
2022/11/04 00:33:45;;;;;;;;;;;;;;;-143.57;89.81;50949.16;5057300;28;20553;-66
2022/11/04 00:36:12;;;;;;;;;;;;;;;-143.57;90.82;50988.91;5056635;28;20593;-66
2022/11/04 00:38:39;;;;;;;;;;;;;;;-143.57;91.83;50937.22;5063068;28;20028;-66
2022/11/04 00:41:24;;;;;;;;;;;;;;;-143.57;91.88;50961.06;5058322;28;20503;-66
2022/11/04 00:43:52;;;;;;;;;;;;;;;-143.57;93.71;50984.94;5063269;28;20014;-66
2022/11/04 00:46:19;;;;;;;;;;;;;;;-143.57;94.71;50971.03;5058351;28;20037;-66
2022/11/04 00:48:46;;;;;;;;;;;;;;;-143.57;93.67;50971.03;5058923;28;19928;-66
2022/11/04 00:51:12;;;;;;;;;;;;;;;-143.57;95.38;50994.88;5059346;28;19928;-66
2022/11/04 00:53:44;;;;;;;;;;;;;;;-143.57;96.08;50947.16;5064544;28;19935;-66
2022/11/04 00:56:11;;;;;;;;;;;;;;;-143.57;95.82;51000.84;5058601;28;19928;-66
2022/11/04 00:58:37;;;;;;;;;;;;;;;-143.57;95.35;50967.03;5060271;28;19931;-66
2022/11/04 01:01:11;;;;;;;;;;;;;;;-143.57;95.34;50996.84;5060423;28;20779;-66
2022/11/04 01:03:38;;;;;;;;;;;;;;;-143.57;98.54;50953.13;5056974;28;20481;-66
2022/11/04 01:06:05;;;;;;;;;;;;;;;-143.57;97.88;50980.97;5059930;28;20498;-66
2022/11/04 01:08:31;;;;;;;;;;;;;;;-143.57;98.18;50969.03;5061410;28;19928;-66
2022/11/04 01:11:05;;;;;;;;;;;;;;;-143.57;99.64;50955.13;5057775;28;19967;-66
2022/11/04 01:13:31;;;;;;;;;;;;;;;-143.57;100.00;50973.00;5057283;28;19936;-65
2022/11/04 01:15:58;;;;;;;;;;;;;;;-143.57;100.00;50961.06;5061618;28;19924;-66
2022/11/04 01:18:25;;;;;;;;;;;;;;;-143.57;100.00;50957.09;5057564;28;19925;-66
2022/11/04 01:20:52;;;;;;;;;;;;;;;-143.57;100.00;50971.03;5061988;28;19978;-66
2022/11/04 01:23:19;;;;;;;;;;;;;;;-143.57;100.00;50937.22;5059689;28;19928;-66
2022/11/04 01:25:45;;;;;;;;;;;;;;;-143.57;100.00;50988.91;5060046;28;19928;-66
2022/11/04 01:28:12;;;;;;;;;;;;;;;-143.57;100.00;50953.13;5091751;28;20018;-65
2022/11/04 01:30:39;;;;;;;;;;;;;;;-143.57;100.00;50976.97;5058385;28;19924;-66
2022/11/04 01:33:05;;;;;;;;;;;;;;;-143.57;100.00;50949.16;5059468;28;19935;-66
2022/11/04 01:35:32;;;;;;;;;;;;;;;-143.57;100.00;50965.06;5056852;28;19924;-66
2022/11/04 01:37:58;;;;;;;;;;;;;;;-143.57;100.00;50969.03;5061298;28;20429;-65
2022/11/04 01:40:25;;;;;;;;;;;;;;;-143.57;100.00;50933.25;5057123;28;19933;-66
2022/11/04 01:42:52;;;;;;;;;;;;;;;-143.57;100.00;51002.81;5057563;28;20454;-67
2022/11/04 01:45:19;;;;;;;;;;;;;;;-143.57;100.00;50945.19;5057436;28;19955;-66
2022/11/04 01:48:00;;;;;;;;;;;;;;;-143.57;100.00;50961.06;5059933;28;19928;-66
2022/11/04 01:50:28;;;;;;;;;;;;;;;-143.57;100.00;51000.84;5059677;28;19936;-66
2022/11/04 01:53:11;;;;;;;;;;;;;;;-143.57;100.00;50953.13;5057366;28;20028;-66
2022/11/04 01:55:44;;;;;;;;;;;;;;;-143.57;100.00;50949.16;5061666;28;19981;-66
2022/11/04 01:58:13;;;;;;;;;;;;;;;-143.57;100.00;50969.03;5057358;28;20027;-66
2022/11/04 02:00:41;;;;;;;;;;;;;;;-143.57;100.00;50998.84;5055754;28;19928;-66
2022/11/04 02:03:08;;;;;;;;;;;;;;;-143.57;100.00;50967.03;5060663;28;19929;-66
2022/11/04 02:05:36;;;;;;;;;;;;;;;-143.57;100.00;50957.09;5057152;28;19958;-68
2022/11/04 02:08:04;;;;;;;;;;;;;;;-143.57;100.00;50988.91;5058765;28;19925;-66
2022/11/04 02:10:31;;;;;;;;;;;;;;;-143.57;100.00;51008.78;5055422;28;19925;-66
2022/11/04 02:12:59;;;;;;;;;;;;;;;-143.57;100.00;50957.09;5059501;28;20690;-66
2022/11/04 02:15:32;;;;;;;;;;;;;;;-143.57;100.00;50953.13;5059356;28;19964;-66
2022/11/04 02:18:01;;;;;;;;;;;;;;;-143.57;100.00;50973.00;5060394;28;19974;-66
2022/11/04 02:20:35;;;;;;;;;;;;;;;-143.57;100.00;50988.91;5059466;28;19968;-67
2022/11/04 02:23:20;;;;;;;;;;;;;;;-143.57;100.00;50957.09;5060536;28;20394;-66
2022/11/04 02:25:56;;;;;;;;;;;;;;;-143.57;100.00;50949.16;5060759;28;20376;-66
2022/11/04 02:28:41;;;;;;;;;;;;;;;-143.57;100.00;50953.13;5061932;28;19982;-66
2022/11/04 02:31:10;;;;;;;;;;;;;;;-143.57;100.00;50998.84;5062777;28;20024;-66
2022/11/04 02:33:52;;;;;;;;;;;;;;;-143.57;100.00;50969.03;5058297;28;20628;-66
2022/11/04 02:36:31;;;;;;;;;;;;;;;-143.57;100.00;51014.75;5065647;28;19924;-66
2022/11/04 02:39:07;;;;;;;;;;;;;;;-143.57;100.00;50965.06;5061155;28;20017;-66
2022/11/04 02:41:34;;;;;;;;;;;;;;;-143.57;100.00;50973.00;5093551;27;20632;-66
2022/11/04 02:44:12;;;;;;;;;;;;;;;-143.57;100.00;50980.97;5062441;28;19928;-66
2022/11/04 02:46:44;;;;;;;;;;;;;;;-143.57;100.00;51016.72;5064532;28;20405;-66
2022/11/04 02:49:12;;;;;;;;;;;;;;;-143.57;100.00;50994.88;5059706;28;20655;-66
2022/11/04 02:51:55;;;;;;;;;;;;;;;-143.57;100.00;50976.97;5064542;28;19932;-66
2022/11/04 02:54:21;;;;;;;;;;;;;;;-143.57;100.00;50988.91;5060512;28;19932;-66
2022/11/04 02:56:50;;;;;;;;;;;;;;;-143.57;100.00;50988.91;5064202;28;19932;-66
2022/11/04 02:59:21;;;;;;;;;;;;;;;-143.57;100.00;50992.88;5058760;28;20193;-66
2022/11/04 03:01:49;;;;;;;;;;;;;;;-143.57;100.00;50988.91;5061276;28;19928;-67
2022/11/04 03:04:19;;;;;;;;;;;;;;;-143.57;100.00;50949.16;5060935;28;20362;-67
2022/11/04 03:06:47;;;;;;;;;;;;;;;-143.57;100.00;51002.81;5059922;28;20608;-67
2022/11/04 03:09:15;;;;;;;;;;;;;;;-143.57;100.00;50984.94;5063194;28;19993;-67
2022/11/04 03:11:44;;;;;;;;;;;;;;;-143.57;100.00;50953.13;5060828;28;20647;-67
2022/11/04 03:14:30;;;;;;;;;;;;;;;-143.57;100.00;50961.06;5065529;28;19928;-67
2022/11/04 03:16:59;;;;;;;;;;;;;;;-143.57;100.00;50996.84;5058666;28;20627;-67
2022/11/04 03:19:41;;;;;;;;;;;;;;;-143.57;100.00;51000.84;5064381;28;19985;-67
2022/11/04 03:22:16;;;;;;;;;;;;;;;-143.57;100.00;50984.94;5059882;28;20026;-66
2022/11/04 03:24:45;;;;;;;;;;;;;;;-143.57;100.00;50971.03;5062297;28;20013;-66
2022/11/04 03:27:21;;;;;;;;;;;;;;;-143.57;100.00;50992.88;5059693;28;19924;-66
2022/11/04 03:29:50;;;;;;;;;;;;;;;-143.57;100.00;51032.63;5060908;28;19928;-66
2022/11/04 03:32:37;;;;;;;;;;;;;;;-143.57;100.00;50937.22;5059154;28;19964;-66
2022/11/04 03:35:05;;;;;;;;;;;;;;;-143.57;100.00;51002.81;5052132;28;19928;-66
2022/11/04 03:37:32;;;;;;;;;;;;;;;-143.57;100.00;50984.94;5057493;28;19928;-66
2022/11/04 03:39:59;;;;;;;;;;;;;;;-143.57;100.00;50976.97;5063192;28;19931;-66
2022/11/04 03:42:26;;;;;;;;;;;;;;;-143.57;100.00;51048.53;5059664;28;20017;-66
2022/11/04 03:44:54;;;;;;;;;;;;;;;-143.57;100.00;50973.00;5060198;28;20349;-66
2022/11/04 03:47:23;;;;;;;;;;;;;;;-143.57;100.00;50992.88;5059015;28;19929;-66
2022/11/04 03:49:51;;;;;;;;;;;;;;;-143.57;100.00;50961.06;5059556;28;20496;-66
2022/11/04 03:52:18;;;;;;;;;;;;;;;-143.57;100.00;51016.72;5058913;28;19989;-66
2022/11/04 03:54:46;;;;;;;;;;;;;;;-143.57;100.00;50992.88;5059174;28;19928;-66
2022/11/04 03:57:19;;;;;;;;;;;;;;;-143.57;100.00;51010.78;5062622;28;20037;-66
2022/11/04 04:00:05;;;;;;;;;;;;;;;-143.57;100.00;50986.91;5059448;28;19929;-66
2022/11/04 04:02:43;;;;;;;;;;;;;;;-143.57;100.00;51028.66;5061062;28;20017;-66
2022/11/04 04:05:20;;;;;;;;;;;;;;;-143.57;100.00;50984.94;5058658;28;19929;-66
2022/11/04 04:07:58;;;;;;;;;;;;;;;-143.57;100.00;50980.97;5060563;28;19929;-66
2022/11/04 04:10:40;;;;;;;;;;;;;;;-143.57;100.00;50969.03;5056846;28;19932;-66
2022/11/04 04:13:17;;;;;;;;;;;;;;;-143.57;100.00;50973.00;5058836;28;19929;-66
2022/11/04 04:15:47;;;;;;;;;;;;;;;-143.57;100.00;51012.75;5054998;28;19985;-66
2022/11/04 04:18:15;;;;;;;;;;;;;;;-143.57;100.00;50988.91;5058129;28;19936;-66
2022/11/04 04:20:46;;;;;;;;;;;;;;;-143.57;100.00;50992.88;5062944;28;19928;-66
2022/11/04 04:28:54;;;;;;;;;;;;;;;-143.57;100.00;51004.81;5059308;28;19993;-65
2022/11/04 04:34:08;;;;;;;;;;;;;;;-143.57;100.00;51016.72;5058638;28;19925;-66
2022/11/04 04:36:41;;;;;;;;;;;;;;;-143.57;100.00;50975.00;5057458;28;19956;-64
2022/11/04 04:47:29;;;;;;;;;;;;;;;-143.57;100.00;50996.84;5056541;28;19968;-65
2022/11/04 04:50:00;;;;;;;;;;;;;;;-143.57;100.00;50988.91;5055233;28;19974;-67
2022/11/04 04:52:28;;;;;;;;;;;;;;;-143.57;100.00;51012.75;5053879;28;20431;-68
2022/11/04 04:54:55;;;;;;;;;;;;;;;-143.57;100.00;50992.88;5057700;28;19920;-67
2022/11/04 04:57:22;;;;;;;;;;;;;;;-143.57;100.00;51020.72;5056442;28;20011;-68
2022/11/04 04:59:48;;;;;;;;;;;;;;;-143.57;100.00;51004.81;5057595;28;19925;-67
2022/11/04 05:02:15;;;;;;;;;;;;;;;-143.57;100.00;51020.72;5060225;28;19933;-65
2022/11/04 05:04:42;;;;;;;;;;;;;;;-143.57;100.00;51008.78;5061882;28;20601;-65
2022/11/04 05:07:09;;;;;;;;;;;;;;;-143.57;100.00;50980.97;5057377;28;19982;-65
2022/11/04 05:09:35;;;;;;;;;;;;;;;-143.57;100.00;51018.72;5081921;28;19937;-65
2022/11/04 05:12:02;;;;;;;;;;;;;;;-143.57;100.00;51008.78;5059074;28;19924;-65
2022/11/04 05:14:29;;;;;;;;;;;;;;;-143.57;100.00;51000.84;5060326;28;19924;-65
2022/11/04 05:16:56;;;;;;;;;;;;;;;-143.57;100.00;51028.66;5061238;28;19932;-65
2022/11/04 05:19:22;;;;;;;;;;;;;;;-143.57;100.00;51012.75;5057495;28;19990;-67
2022/11/04 05:21:49;;;;;;;;;;;;;;;-143.57;100.00;50992.88;5060146;28;19963;-66
2022/11/04 05:24:15;;;;;;;;;;;;;;;-143.57;100.00;50996.84;5059395;28;19982;-66
2022/11/04 05:26:42;;;;;;;;;;;;;;;-143.57;100.00;51024.69;5060255;28;20038;-67
2022/11/04 05:29:09;;;;;;;;;;;;;;;-143.57;100.00;50992.88;5060068;28;19982;-66
2022/11/04 05:31:36;;;;;;;;;;;;;;;-143.57;100.00;50973.00;5064181;28;19928;-66
2022/11/04 05:34:04;;;;;;;;;;;;;;;-143.57;100.00;50969.03;5059044;28;19971;-67
2022/11/04 05:36:34;;;;;;;;;;;;;;;-143.57;100.00;50975.00;5061736;28;19987;-65
2022/11/04 05:39:00;;;;;;;;;;;;;;;-143.57;100.00;50996.84;5059697;28;19960;-66
2022/11/04 05:41:27;;;;;;;;;;;;;;;-143.57;100.00;50996.84;5040523;28;20639;-66
2022/11/04 05:43:55;;;;;;;;;;;;;;;-143.57;100.00;51004.81;5057988;28;19925;-66
2022/11/04 05:46:22;;;;;;;;;;;;;;;-143.57;100.00;51010.78;5057816;28;20032;-66
2022/11/04 05:48:49;;;;;;;;;;;;;;;-143.57;100.00;50975.00;5057530;28;19932;-67
2022/11/04 05:51:17;;;;;;;;;;;;;;;-143.57;100.00;50978.97;5058095;28;19989;-67
2022/11/04 05:53:44;;;;;;;;;;;;;;;-143.57;100.00;51000.84;5063029;28;19924;-67
2022/11/04 05:56:11;;;;;;;;;;;;;;;-143.57;100.00;50994.88;5058511;28;20018;-67
2022/11/04 05:58:37;;;;;;;;;;;;;;;-143.57;100.00;51022.69;5062685;28;19932;-66
2022/11/04 06:01:11;;;;;;;;;;;;;;;-143.57;100.00;51016.72;5060771;28;19928;-67
2022/11/04 06:03:38;;;;;;;;;;;;;;;-143.57;100.00;51040.59;5063919;28;20021;-67
2022/11/04 06:06:04;;;;;;;;;;;;;;;-143.57;100.00;51016.72;5061186;28;19944;-67
2022/11/04 06:08:31;;;;;;;;;;;;;;;-143.57;100.00;51026.69;5061645;28;19972;-66
2022/11/04 06:10:59;;;;;;;;;;;;;;;-143.57;100.00;50976.97;5060957;28;19936;-66
2022/11/04 06:13:26;;;;;;;;;;;;;;;-143.57;100.00;51024.69;5062924;28;19931;-66
2022/11/04 06:15:53;;;;;;;;;;;;;;;-143.57;100.00;51040.59;5062128;28;19932;-66
2022/11/04 06:18:19;;;;;;;;;;;;;;;-143.57;100.00;51034.63;5059338;28;20471;-66
2022/11/04 06:20:46;;;;;;;;;;;;;;;-143.57;100.00;50980.97;5061039;28;19932;-66
2022/11/04 06:23:13;;;;;;;;;;;;;;;-143.57;100.00;50988.91;5060413;27;19928;-66
2022/11/04 06:25:39;;;;;;;;;;;;;;;-143.57;100.00;51020.72;5062307;28;19932;-66
2022/11/04 06:28:06;;;;;;;;;;;;;;;-143.57;100.00;51012.75;5061632;28;19931;-66
2022/11/04 06:30:33;;;;;;;;;;;;;;;-143.57;100.00;51022.69;5064433;28;20697;-66
2022/11/04 06:32:59;;;;;;;;;;;;;;;-143.57;100.00;51004.81;5061965;28;20017;-66
2022/11/04 06:35:26;;;;;;;;;;;;;;;-143.57;100.00;50980.97;5061786;28;19932;-66
2022/11/04 06:37:53;;;;;;;;;;;;;;;-143.57;100.00;50992.88;5058180;28;20329;-67
2022/11/04 06:40:20;;;;;;;;;;;;;;;-143.57;100.00;51024.69;5062462;28;19928;-67
2022/11/04 06:42:48;;;;;;;;;;;;;;;-143.57;100.00;51036.63;5061041;28;20009;-67
2022/11/04 06:45:14;;;;;;;;;;;;;;;-143.57;100.00;51000.84;5059471;28;20001;-67
2022/11/04 06:47:41;;;;;;;;;;;;;;;-143.57;100.00;51018.72;5062210;28;19924;-66
2022/11/04 06:50:08;;;;;;;;;;;;;;;-143.57;100.00;50984.94;5060698;28;19989;-66
2022/11/04 06:52:34;;;;;;;;;;;;;;;-143.57;100.00;51020.72;5060823;28;20818;-66
2022/11/04 06:55:08;;;;;;;;;;;;;;;-143.57;100.00;51024.69;5062833;28;20069;-66
2022/11/04 06:57:34;;;;;;;;;;;;;;;-143.57;100.00;51024.69;5059752;28;20197;-66
2022/11/04 07:00:01;;;;;;;;;;;;;;;-143.57;100.00;51044.56;5061883;28;20009;-66
2022/11/04 07:02:28;;;;;;;;;;;;;;;-143.57;100.00;51032.63;5060645;28;19928;-66
2022/11/04 07:04:54;;;;;;;;;;;;;;;-143.57;100.00;51034.63;5059797;28;20699;-66
2022/11/04 07:07:27;;;;;;;;;;;;;;;-143.57;100.00;50992.88;5059140;28;19935;-65
2022/11/04 07:09:54;;;;;;;;;;;;;;;-143.57;100.00;51040.59;5059153;28;20066;-69
2022/11/04 07:12:22;;;;;;;;;;;;;;;-143.57;100.00;50996.84;5063709;28;19929;-68
2022/11/04 07:14:49;;;;;;;;;;;;;;;-143.57;100.00;51016.72;5062551;28;20024;-69
2022/11/04 07:17:15;;;;;;;;;;;;;;;-143.57;100.00;50984.94;5058666;28;19939;-68
2022/11/04 07:19:42;;;;;;;;;;;;;;;-143.57;100.00;50992.88;5062876;28;20569;-68
2022/11/04 07:22:09;;;;;;;;;;;;;;;-143.57;100.00;51040.59;5059271;28;19942;-68
2022/11/04 07:24:35;;;;;;;;;;;;;;;-143.57;100.00;51008.78;5068132;28;19932;-67
2022/11/04 07:27:02;;;;;;;;;;;;;;;-143.57;100.00;51000.84;5061396;28;19928;-67
2022/11/04 07:29:29;;;;;;;;;;;;;;;-143.57;100.00;51008.78;5061171;28;19958;-67
2022/11/04 07:31:55;;;;;;;;;;;;;;;-143.57;100.00;51008.78;5058334;28;19936;-67
2022/11/04 07:34:22;;;;;;;;;;;;;;;-143.57;100.00;50996.84;5062000;28;20728;-67
2022/11/04 07:36:49;;;;;;;;;;;;;;;-143.57;100.00;51036.63;5056227;28;19925;-68
2022/11/04 07:39:15;;;;;;;;;;;;;;;-143.57;100.00;51012.75;5063130;28;20317;-68
2022/11/04 07:41:42;;;;;;;;;;;;;;;-143.57;100.00;51034.63;5059650;28;19935;-67
2022/11/04 07:44:12;;;;;;;;;;;;;;;-143.57;100.00;51016.72;5058945;28;20007;-67
2022/11/04 07:46:40;;;;;;;;;;;;;;;-143.57;100.00;50992.88;5062517;28;19924;-67
2022/11/04 07:49:06;;;;;;;;;;;;;;;-143.57;100.00;51008.78;5062098;28;20662;-66
2022/11/04 07:51:33;;;;;;;;;;;;;;;-143.57;100.00;51008.78;5059944;28;19951;-67
2022/11/04 07:54:00;;;;;;;;;;;;;;;-143.57;100.00;51002.81;5061241;28;19948;-65
2022/11/04 07:56:27;;;;;;;;;;;;;;;-143.57;100.00;51040.59;5059134;28;20019;-65
2022/11/04 07:58:55;;;;;;;;;;;;;;;-143.57;100.00;51032.63;5058886;28;19993;-65
2022/11/04 08:01:22;;;;;;;;;;;;;;;-143.57;100.00;51056.50;5055515;28;19928;-64
2022/11/04 08:03:49;;;;;;;;;;;;;;;-143.57;100.00;50998.84;5057668;28;19924;-65
2022/11/04 08:06:17;;;;;;;;;;;;;;;-143.57;100.00;51002.81;5057567;28;20408;-65
2022/11/04 08:08:43;;;;;;;;;;;;;;;-143.57;100.00;51008.78;5058609;28;19933;-65
2022/11/04 08:11:12;;;;;;;;;;;;;;;-143.57;100.00;51028.66;5062830;28;19928;-65
2022/11/04 08:13:44;;;;;;;;;;;;;;;-143.57;100.00;51032.63;5059157;28;19924;-65
2022/11/04 08:16:12;;;;;;;;;;;;;;;-143.57;100.00;51002.81;5055420;28;20823;-65
2022/11/04 08:18:39;;;;;;;;;;;;;;;-143.57;100.00;51036.63;5054767;28;19934;-64
2022/11/04 08:21:05;;;;;;;;;;;;;;;-143.57;100.00;51040.59;5059135;28;20044;-67
2022/11/04 08:23:33;;;;;;;;;;;;;;;-143.57;100.00;50988.91;5056267;28;20076;-68
2022/11/04 08:26:00;;;;;;;;;;;;;;;-143.57;100.00;51000.84;5057840;28;19928;-67
2022/11/04 08:28:28;;;;;;;;;;;;;;;-143.57;100.00;51056.50;5061834;28;19981;-67
2022/11/04 08:30:56;;;;;;;;;;;;;;;-143.57;100.00;51010.78;5058888;28;19932;-66
2022/11/04 08:33:24;;;;;;;;;;;;;;;-143.57;100.00;51088.28;5060118;28;19928;-67
2022/11/04 08:35:50;;;;;;;;;;;;;;;-143.57;100.00;51036.63;5057235;28;19924;-67
2022/11/04 08:38:17;;;;;;;;;;;;;;;-143.57;100.00;51008.78;5059104;28;19933;-66
2022/11/04 08:40:44;;;;;;;;;;;;;;;-143.57;100.00;51034.63;5058652;28;19928;-66
2022/11/04 08:43:10;;;;;;;;;;;;;;;-143.57;100.00;51024.69;5059647;28;19932;-65
2022/11/04 08:45:44;;;;;;;;;;;;;;;-143.57;100.00;51024.69;5058389;28;20252;-67
2022/11/04 08:48:12;;;;;;;;;;;;;;;-143.57;100.00;51044.56;5058492;28;19924;-67
2022/11/04 08:50:39;;;;;;;;;;;;;;;-143.57;100.00;51036.63;5056542;28;20156;-67
2022/11/04 08:53:05;;;;;;;;;;;;;;;-143.57;100.00;51004.81;5058049;28;19932;-66
2022/11/04 08:55:33;;;;;;;;;;;;;;;-143.57;100.00;51060.47;5056438;28;19925;-67
2022/11/04 08:58:00;;;;;;;;;;;;;;;-143.57;100.00;51004.81;5084039;28;20083;-67
2022/11/04 09:00:26;;;;;;;;;;;;;;;-143.57;100.00;50996.84;5057167;28;19925;-67
2022/11/04 09:02:54;;;;;;;;;;;;;;;-143.57;100.00;51004.81;5055689;28;20239;-65
2022/11/04 09:05:21;;;;;;;;;;;;;;;-143.57;100.00;51004.81;5056425;28;19993;-65
2022/11/04 09:07:48;;;;;;;;;;;;;;;-143.57;100.00;51016.72;5058492;28;19932;-66
2022/11/04 09:10:16;;;;;;;;;;;;;;;-143.57;100.00;51032.63;5057694;28;20011;-65
2022/11/04 09:12:43;;;;;;;;;;;;;;;-143.57;100.00;51018.72;5057449;28;21188;-64
2022/11/04 09:15:10;;;;;;;;;;;;;;;-143.57;100.00;51030.66;5059788;28;19935;-66
2022/11/04 09:17:36;;;;;;;;;;;;;;;-143.57;100.00;51044.56;5057774;28;19936;-66
2022/11/04 09:20:03;;;;;;;;;;;;;;;-143.57;100.00;50998.84;5059813;28;19968;-66
2022/11/04 09:22:30;;;;;;;;;;;;;;;-143.57;100.00;51024.69;5059948;28;19928;-66
2022/11/04 09:24:57;;;;;;;;;;;;;;;-143.57;100.00;51024.69;5059012;28;19928;-66
2022/11/04 09:27:24;;;;;;;;;;;;;;;-143.57;100.00;51036.63;5061732;28;20059;-66
2022/11/04 09:29:51;;;;;;;;;;;;;;;-143.57;100.00;51056.50;5061591;28;19929;-66
2022/11/04 09:32:17;;;;;;;;;;;;;;;-143.57;100.00;51020.72;5059799;28;19929;-66
2022/11/04 09:34:44;;;;;;;;;;;;;;;-143.57;95.17;51038.59;5058887;28;19989;-66
2022/11/04 09:37:12;;;;;;;;;;;;;;;-143.57;94.97;51028.66;5060452;28;19932;-65
2022/11/04 09:39:38;;;;;;;;;;;;;;;-143.57;93.01;51044.56;5060821;28;20631;-65
2022/11/04 09:42:24;;;;;;;;;;;;;;;-143.57;92.76;50992.88;5061984;28;20047;-65
2022/11/04 09:45:00;;;;;;;;;;;;;;;-143.57;90.92;51026.69;5061249;28;20009;-65
2022/11/04 09:47:48;;;;;;;;;;;;;;;-143.57;61.88;51040.59;5060547;28;19921;-65
2022/11/04 09:50:21;;;;;;;;;;;;;;;-143.57;62.23;51000.84;5062348;28;20369;-67
2022/11/04 09:52:53;;;;;;;;;;;;;;;-143.57;62.16;51024.69;5063160;28;20002;-66
2022/11/04 09:55:23;;;;;;;;;;;;;;;-143.57;61.36;51024.69;5062144;28;20476;-66
2022/11/04 09:57:53;;;;;;;;;;;;;;;-143.57;61.28;51036.63;5063912;28;20017;-66
2022/11/04 10:00:20;;;;;;;;;;;;;;;-143.57;60.90;51032.63;5060664;28;20090;-68
2022/11/04 10:03:02;;;;;;;;;;;;;;;-143.57;60.24;51028.66;5062499;28;19994;-65
2022/11/04 10:05:37;;;;;;;;;;;;;;;-143.57;59.98;51024.69;5059838;28;19990;-66
2022/11/04 10:08:16;;;;;;;;;;;;;;;-143.57;58.61;51032.63;5064657;28;19935;-66
2022/11/04 10:11:06;;;;;;;;;;;;;;;-143.57;57.37;51048.53;5059904;28;19994;-66
2022/11/04 10:13:41;;;;;;;;;;;;;;;-143.57;57.02;51024.69;5061321;28;19924;-67
2022/11/04 10:16:17;;;;;;;;;;;;;;;-143.57;57.42;51004.81;5060052;28;19976;-67
2022/11/04 10:18:46;;;;;;;;;;;;;;;-143.57;57.60;51044.56;5064111;28;19956;-67
2022/11/04 10:21:13;;;;;;;;;;;;;;;-143.57;56.82;51056.50;5061071;28;19939;-67
2022/11/04 10:23:44;;;;;;;;;;;;;;;-143.57;56.67;51044.56;5060608;28;19932;-67
2022/11/04 10:26:18;;;;;;;;;;;;;;;-143.57;56.05;51018.72;5061218;28;20491;-66
2022/11/04 10:28:51;;;;;;;;;;;;;;;-143.57;57.33;51032.63;5063150;28;20675;-68
2022/11/04 10:31:17;;;;;;;;;;;;;;;-143.57;55.15;51024.69;5061298;28;20506;-68
2022/11/04 10:33:47;;;;;;;;;;;;;;;-143.57;55.06;51044.56;5061118;28;20023;-67
2022/11/04 10:36:15;;;;;;;;;;;;;;;-143.57;54.60;51008.78;5062379;28;19932;-68
2022/11/04 10:38:53;;;;;;;;;;;;;;;-143.57;54.71;51024.69;5059135;28;20447;-67
2022/11/04 10:41:23;;;;;;;;;;;;;;;-143.57;54.57;51016.72;5066154;28;19951;-67
2022/11/04 10:43:51;;;;;;;;;;;;;;;-143.57;53.68;51016.72;5059912;28;19998;-66
2022/11/04 10:46:27;;;;;;;;;;;;;;;-143.57;53.43;51004.81;5062189;28;19940;-67
2022/11/04 10:48:57;;;;;;;;;;;;;;;-143.57;54.06;51016.72;5062632;28;20016;-67
2022/11/04 10:51:24;;;;;;;;;;;;;;;-143.57;53.67;51028.66;5062788;28;20384;-68
2022/11/04 10:53:55;;;;;;;;;;;;;;;-143.57;52.85;51004.81;5058354;28;19952;-67
2022/11/04 10:56:37;;;;;;;;;;;;;;;-143.57;51.12;51034.63;5090213;27;20380;-67
2022/11/04 10:59:15;;;;;;;;;;;;;;;-143.57;50.58;51004.81;5064410;28;19936;-67
2022/11/04 11:02:04;;;;;;;;;;;;;;;-143.57;49.95;51020.72;5068257;28;19932;-67
2022/11/04 11:04:32;;;;;;;;;;;;;;;-143.57;49.21;51036.63;5071533;28;19939;-66
2022/11/04 11:07:03;;;;;;;;;;;;;;;-143.57;48.13;51004.81;5074578;28;20338;-67
2022/11/04 11:09:32;;;;;;;;;;;;;;;-143.57;47.56;51018.72;5062867;28;19967;-67
2022/11/04 11:12:00;;;;;;;;;;;;;;;-143.57;46.97;51000.84;5066939;28;19986;-66
2022/11/04 11:14:27;;;;;;;;;;;;;;;-143.57;46.15;51020.72;5067377;28;19947;-66
2022/11/04 11:16:54;;;;;;;;;;;;;;;-143.57;45.91;51000.84;5064777;28;19933;-68
2022/11/04 11:19:23;;;;;;;;;;;;;;;-143.57;46.15;51016.72;5062919;28;20059;-65
2022/11/04 11:21:54;;;;;;;;;;;;;;;-143.57;45.74;51012.75;5067282;28;19928;-65
2022/11/04 11:24:22;;;;;;;;;;;;;;;-143.57;45.68;51034.63;5058589;28;19929;-67
2022/11/04 11:26:51;;;;;;;;;;;;;;;-143.57;44.74;51034.63;5059335;28;19932;-66
2022/11/04 11:29:23;;;;;;;;;;;;;;;-143.57;44.77;51008.78;5064654;28;19924;-66
2022/11/04 11:31:51;;;;;;;;;;;;;;;-143.57;44.05;51012.75;5067090;28;19939;-67
2022/11/04 11:34:25;;;;;;;;;;;;;;;-143.57;43.85;51020.72;5062149;28;19936;-67
2022/11/04 11:36:53;;;;;;;;;;;;;;;-143.57;43.10;50992.88;5058320;28;19932;-67
2022/11/04 11:39:23;;;;;;;;;;;;;;;-143.57;41.74;51040.59;5061300;28;20447;-67
2022/11/04 11:41:49;;;;;;;;;;;;;;;-143.57;40.36;51004.81;5059555;28;19940;-67
2022/11/04 11:44:24;;;;;;;;;;;;;;;-143.57;40.16;50992.88;5063722;28;20001;-66
2022/11/04 11:46:53;;;;;;;;;;;;;;;-143.57;39.03;51012.75;5058145;28;19928;-65
2022/11/04 11:49:31;;;;;;;;;;;;;;;-143.57;39.47;50980.97;5056606;28;19929;-65
2022/11/04 11:52:16;;;;;;;;;;;;;;;-143.57;38.46;51020.72;5059413;28;20047;-66
2022/11/04 11:54:46;;;;;;;;;;;;;;;-143.57;38.41;51008.78;5059566;28;19935;-66
2022/11/04 11:57:21;;;;;;;;;;;;;;;-143.57;38.11;51018.72;5061250;28;19940;-66
2022/11/04 11:59:53;;;;;;;;;;;;;;;-143.57;38.03;51020.72;5060013;28;20213;-66
2022/11/04 12:02:45;;;;;;;;;;;;;;;-143.57;38.32;51036.63;5058378;28;19940;-66
2022/11/04 12:05:13;;;;;;;;;;;;;;;-143.57;38.76;50988.91;5058842;28;19934;-62
2022/11/04 12:08:14;;;;;;;;;;;;;;;-143.57;38.43;51004.81;5058443;28;20379;-65
2022/11/04 12:11:05;;;;;;;;;;;;;;;-143.57;38.02;50988.91;5064871;28;20508;-65
2022/11/04 12:13:40;;;;;;;;;;;;;;;-143.57;37.16;51024.69;5057411;28;19932;-66
2022/11/04 12:16:22;;;;;;;;;;;;;;;-143.57;36.72;51002.81;5060768;28;19968;-66
2022/11/04 12:19:01;;;;;;;;;;;;;;;-143.57;36.73;50994.88;5058655;28;19958;-65
2022/11/04 12:21:34;;;;;;;;;;;;;;;-143.57;35.72;51032.63;5059936;28;20414;-64
2022/11/04 12:24:22;;;;;;;;;;;;;;;-143.57;35.38;51020.72;5056245;28;19928;-65
2022/11/04 12:26:48;;;;;;;;;;;;;;;-143.57;34.78;51008.78;5058904;28;19924;-64
2022/11/04 12:29:35;;;;;;;;;;;;;;;-143.57;34.42;50996.84;5058799;28;19993;-65
2022/11/04 12:32:14;;;;;;;;;;;;;;;-143.57;34.70;50988.91;5058085;28;19956;-66
2022/11/04 12:34:50;;;;;;;;;;;;;;;-143.57;35.45;51024.69;5060107;28;19932;-65
2022/11/04 12:37:26;;;;;;;;;;;;;;;-143.57;36.03;50996.84;5056503;28;19972;-65
2022/11/04 12:40:11;;;;;;;;;;;;;;;-143.57;36.42;51002.81;5056537;28;19934;-65
2022/11/04 12:42:56;;;;;;;;;;;;;;;-143.57;37.28;51012.75;5059423;28;19936;-64
2022/11/04 12:45:37;;;;;;;;;;;;;;;-143.57;37.57;50986.91;5056903;28;19928;-64
2022/11/04 12:48:10;;;;;;;;;;;;;;;-143.57;37.88;51036.63;5057461;28;20352;-64
2022/11/04 12:50:58;;;;;;;;;;;;;;;-143.57;38.20;50996.84;5055882;28;19932;-65
2022/11/04 12:53:24;;;;;;;;;;;;;;;-143.57;38.26;50976.97;5058789;28;19928;-65
2022/11/04 12:56:09;;;;;;;;;;;;;;;-143.57;38.28;51032.63;5057860;28;19943;-65
2022/11/04 12:58:47;;;;;;;;;;;;;;;-143.57;38.61;51018.72;5059072;28;19928;-65
2022/11/04 13:01:22;;;;;;;;;;;;;;;-143.57;38.83;51008.78;5057708;28;21294;-66
2022/11/04 13:03:52;;;;;;;;;;;;;;;-143.57;38.88;50988.91;5083161;28;19925;-66
2022/11/04 13:06:27;;;;;;;;;;;;;;;-143.57;39.29;51008.78;5060916;28;20058;-66
2022/11/04 13:09:07;;;;;;;;;;;;;;;-143.57;39.07;50971.03;5057346;28;19928;-67